LIRA

Ciampino–G. B. Pastine International Airport

Roma, Italy
TAF LIRA 181700Z 1818/1918 VRB05KT CAVOK BECMG 1910/1912 24010KT
Issued Valid From Valid To
Jul-18 @ 17:00 UTC
(5 hours ago)
Jul-18 @ 18:00 UTC
(4 hours ago)
Jul-19 @ 18:00 UTC
(in 20 hours)
Jul-18 @ 18:00 to Jul-19 @ 10:00
TAF LIRA 181700Z 1818/1918 VRB05KT CAVOK
Wind Visibility Clouds Conditions
Variable at 5 knots 10,000+ meters
  • No significant clouds
Becoming Jul-19 @ 10:00 to Jul-19 @ 18:00
BECMG 1910/1912 24010KT
Wind Visibility Clouds Conditions
240° at 10 knots 10,000+ meters
  • No significant clouds
TAF LIRA 181700Z 1818/1918 VRB05KT CAVOK BECMG 1910/1912 24010KT
Issued Jul-18 @ 17:00 UTC
(5 hours ago)
Valid From Jul-18 @ 18:00 UTC
(4 hours ago)
Valid To Jul-19 @ 18:00 UTC
(in 20 hours)
Jul-18 @ 18:00 - Jul-19 @ 10:00
Wind Visibility
Variable at 5 knots 10,000+ meters
Clouds
  • No significant clouds
Conditions
Becoming Jul-19 @ 10:00 - Jul-19 @ 18:00
Wind Visibility
240° at 10 knots 10,000+ meters
Clouds
  • No significant clouds
Conditions